sensor_id;sensor_type;location;lat;lon;timestamp;P1;durP1;ratioP1;P2;durP2;ratioP2
34236;SDS011;20501;45.956;13.632;2024-02-15T00:01:21;29.42;;;16.52;;
34236;SDS011;20501;45.956;13.632;2024-02-15T00:03:46;26.63;;;16.60;;
34236;SDS011;20501;45.956;13.632;2024-02-15T00:06:12;31.73;;;17.63;;
34236;SDS011;20501;45.956;13.632;2024-02-15T00:08:37;27.17;;;15.45;;
34236;SDS011;20501;45.956;13.632;2024-02-15T00:11:03;22.23;;;14.57;;
34236;SDS011;20501;45.956;13.632;2024-02-15T00:13:28;26.88;;;16.45;;
34236;SDS011;20501;45.956;13.632;2024-02-15T00:15:54;22.95;;;11.75;;
34236;SDS011;20501;45.956;13.632;2024-02-15T00:18:20;14.68;;;8.60;;
34236;SDS011;20501;45.956;13.632;2024-02-15T00:20:46;13.50;;;7.55;;
34236;SDS011;20501;45.956;13.632;2024-02-15T00:23:11;12.40;;;7.85;;
34236;SDS011;20501;45.956;13.632;2024-02-15T00:25:37;12.73;;;8.15;;
34236;SDS011;20501;45.956;13.632;2024-02-15T00:28:02;14.70;;;8.10;;
34236;SDS011;20501;45.956;13.632;2024-02-15T00:30:28;19.52;;;8.57;;
34236;SDS011;20501;45.956;13.632;2024-02-15T00:32:54;17.50;;;9.68;;
34236;SDS011;20501;45.956;13.632;2024-02-15T00:35:20;16.20;;;8.18;;
34236;SDS011;20501;45.956;13.632;2024-02-15T00:37:45;11.52;;;7.65;;
34236;SDS011;20501;45.956;13.632;2024-02-15T00:40:11;15.10;;;8.45;;
34236;SDS011;20501;45.956;13.632;2024-02-15T00:42:36;17.40;;;8.15;;
34236;SDS011;20501;45.956;13.632;2024-02-15T00:45:03;13.98;;;8.02;;
34236;SDS011;20501;45.956;13.632;2024-02-15T00:47:30;13.52;;;8.55;;
34236;SDS011;20501;45.956;13.632;2024-02-15T00:49:55;15.30;;;8.35;;
34236;SDS011;20501;45.956;13.632;2024-02-15T00:52:20;13.27;;;7.95;;
34236;SDS011;20501;45.956;13.632;2024-02-15T00:54:46;13.50;;;7.72;;
34236;SDS011;20501;45.956;13.632;2024-02-15T00:57:12;14.43;;;7.05;;
34236;SDS011;20501;45.956;13.632;2024-02-15T00:59:37;12.23;;;7.25;;
34236;SDS011;20501;45.956;13.632;2024-02-15T01:02:03;14.05;;;7.63;;
34236;SDS011;20501;45.956;13.632;2024-02-15T01:06:55;17.38;;;7.43;;
34236;SDS011;20501;45.956;13.632;2024-02-15T01:09:23;12.77;;;7.55;;
34236;SDS011;20501;45.956;13.632;2024-02-15T01:11:49;18.40;;;9.95;;
34236;SDS011;20501;45.956;13.632;2024-02-15T01:14:14;18.42;;;11.63;;
34236;SDS011;20501;45.956;13.632;2024-02-15T01:16:40;22.00;;;13.13;;
34236;SDS011;20501;45.956;13.632;2024-02-15T01:19:06;21.40;;;12.75;;
34236;SDS011;20501;45.956;13.632;2024-02-15T01:21:32;30.23;;;12.98;;
34236;SDS011;20501;45.956;13.632;2024-02-15T01:23:58;23.77;;;11.55;;
34236;SDS011;20501;45.956;13.632;2024-02-15T01:26:25;16.35;;;10.07;;
34236;SDS011;20501;45.956;13.632;2024-02-15T01:28:51;20.38;;;10.27;;
34236;SDS011;20501;45.956;13.632;2024-02-15T01:31:17;17.52;;;9.32;;
34236;SDS011;20501;45.956;13.632;2024-02-15T01:33:43;15.73;;;8.35;;
34236;SDS011;20501;45.956;13.632;2024-02-15T01:36:13;24.38;;;10.60;;
34236;SDS011;20501;45.956;13.632;2024-02-15T01:38:42;19.88;;;10.10;;
34236;SDS011;20501;45.956;13.632;2024-02-15T01:41:07;22.95;;;10.68;;
34236;SDS011;20501;45.956;13.632;2024-02-15T01:43:33;20.67;;;12.60;;
34236;SDS011;20501;45.956;13.632;2024-02-15T01:46:00;25.40;;;13.20;;
34236;SDS011;20501;45.956;13.632;2024-02-15T01:48:29;27.10;;;15.80;;
34236;SDS011;20501;45.956;13.632;2024-02-15T01:50:55;23.90;;;13.55;;
34236;SDS011;20501;45.956;13.632;2024-02-15T01:53:23;24.30;;;14.77;;
34236;SDS011;20501;45.956;13.632;2024-02-15T01:55:50;29.15;;;15.68;;
34236;SDS011;20501;45.956;13.632;2024-02-15T01:58:18;26.00;;;14.73;;
34236;SDS011;20501;45.956;13.632;2024-02-15T02:00:45;27.02;;;14.23;;
34236;SDS011;20501;45.956;13.632;2024-02-15T02:03:10;18.92;;;10.13;;
34236;SDS011;20501;45.956;13.632;2024-02-15T02:05:40;15.30;;;8.10;;
34236;SDS011;20501;45.956;13.632;2024-02-15T02:08:06;12.20;;;7.57;;
34236;SDS011;20501;45.956;13.632;2024-02-15T02:10:35;16.98;;;7.70;;
34236;SDS011;20501;45.956;13.632;2024-02-15T02:13:03;13.20;;;7.88;;
34236;SDS011;20501;45.956;13.632;2024-02-15T02:15:33;21.83;;;7.93;;
34236;SDS011;20501;45.956;13.632;2024-02-15T02:18:02;14.13;;;7.68;;
34236;SDS011;20501;45.956;13.632;2024-02-15T02:20:31;12.48;;;7.55;;
34236;SDS011;20501;45.956;13.632;2024-02-15T02:23:17;14.30;;;8.32;;
34236;SDS011;20501;45.956;13.632;2024-02-15T02:25:45;14.60;;;7.75;;
34236;SDS011;20501;45.956;13.632;2024-02-15T02:28:14;19.50;;;9.95;;
34236;SDS011;20501;45.956;13.632;2024-02-15T02:30:41;19.73;;;11.25;;
34236;SDS011;20501;45.956;13.632;2024-02-15T02:33:12;24.92;;;13.70;;
34236;SDS011;20501;45.956;13.632;2024-02-15T02:35:44;32.17;;;16.85;;
34236;SDS011;20501;45.956;13.632;2024-02-15T02:38:10;45.15;;;21.20;;
34236;SDS011;20501;45.956;13.632;2024-02-15T02:40:35;36.65;;;20.27;;
34236;SDS011;20501;45.956;13.632;2024-02-15T02:43:01;27.83;;;15.23;;
34236;SDS011;20501;45.956;13.632;2024-02-15T02:45:27;15.20;;;9.57;;
34236;SDS011;20501;45.956;13.632;2024-02-15T02:47:53;16.00;;;8.05;;
34236;SDS011;20501;45.956;13.632;2024-02-15T02:50:19;14.82;;;6.88;;
34236;SDS011;20501;45.956;13.632;2024-02-15T02:52:48;14.23;;;7.10;;
34236;SDS011;20501;45.956;13.632;2024-02-15T02:55:14;9.27;;;5.95;;
34236;SDS011;20501;45.956;13.632;2024-02-15T02:57:40;14.07;;;7.03;;
34236;SDS011;20501;45.956;13.632;2024-02-15T03:00:07;11.82;;;5.95;;
34236;SDS011;20501;45.956;13.632;2024-02-15T03:02:37;13.48;;;5.65;;
34236;SDS011;20501;45.956;13.632;2024-02-15T03:05:06;13.02;;;6.70;;
34236;SDS011;20501;45.956;13.632;2024-02-15T03:07:33;11.48;;;6.43;;
34236;SDS011;20501;45.956;13.632;2024-02-15T03:10:03;12.32;;;5.82;;
34236;SDS011;20501;45.956;13.632;2024-02-15T03:12:33;10.80;;;6.30;;
34236;SDS011;20501;45.956;13.632;2024-02-15T03:15:02;14.43;;;6.50;;
34236;SDS011;20501;45.956;13.632;2024-02-15T03:17:29;11.55;;;6.57;;
34236;SDS011;20501;45.956;13.632;2024-02-15T03:19:56;12.95;;;6.88;;
34236;SDS011;20501;45.956;13.632;2024-02-15T03:22:22;13.85;;;7.18;;
34236;SDS011;20501;45.956;13.632;2024-02-15T03:24:50;10.88;;;7.13;;
34236;SDS011;20501;45.956;13.632;2024-02-15T03:27:15;10.50;;;6.35;;
34236;SDS011;20501;45.956;13.632;2024-02-15T03:29:41;13.82;;;6.88;;
34236;SDS011;20501;45.956;13.632;2024-02-15T03:32:06;15.50;;;7.55;;
34236;SDS011;20501;45.956;13.632;2024-02-15T03:34:32;12.55;;;6.75;;
34236;SDS011;20501;45.956;13.632;2024-02-15T03:36:57;11.57;;;6.75;;
34236;SDS011;20501;45.956;13.632;2024-02-15T03:39:23;9.25;;;6.50;;
34236;SDS011;20501;45.956;13.632;2024-02-15T03:41:49;11.30;;;6.37;;
34236;SDS011;20501;45.956;13.632;2024-02-15T03:44:16;10.95;;;6.57;;
34236;SDS011;20501;45.956;13.632;2024-02-15T03:46:43;9.20;;;6.10;;
34236;SDS011;20501;45.956;13.632;2024-02-15T03:49:16;13.50;;;6.63;;
34236;SDS011;20501;45.956;13.632;2024-02-15T03:51:44;12.10;;;6.80;;
34236;SDS011;20501;45.956;13.632;2024-02-15T03:54:11;11.18;;;6.88;;
34236;SDS011;20501;45.956;13.632;2024-02-15T03:56:36;10.60;;;6.78;;
34236;SDS011;20501;45.956;13.632;2024-02-15T03:59:02;12.27;;;6.50;;
34236;SDS011;20501;45.956;13.632;2024-02-15T04:01:29;10.07;;;6.10;;
34236;SDS011;20501;45.956;13.632;2024-02-15T04:03:59;14.70;;;6.50;;
34236;SDS011;20501;45.956;13.632;2024-02-15T04:06:25;13.23;;;6.65;;
34236;SDS011;20501;45.956;13.632;2024-02-15T04:08:52;14.63;;;6.97;;
34236;SDS011;20501;45.956;13.632;2024-02-15T04:11:18;13.57;;;7.40;;
34236;SDS011;20501;45.956;13.632;2024-02-15T04:13:44;14.47;;;7.13;;
34236;SDS011;20501;45.956;13.632;2024-02-15T04:16:10;14.98;;;8.02;;
34236;SDS011;20501;45.956;13.632;2024-02-15T04:18:35;17.17;;;9.50;;
34236;SDS011;20501;45.956;13.632;2024-02-15T04:23:28;16.52;;;9.48;;
34236;SDS011;20501;45.956;13.632;2024-02-15T04:25:54;15.27;;;9.57;;
34236;SDS011;20501;45.956;13.632;2024-02-15T04:28:19;15.57;;;10.45;;
34236;SDS011;20501;45.956;13.632;2024-02-15T04:30:45;19.42;;;10.40;;
34236;SDS011;20501;45.956;13.632;2024-02-15T04:33:13;17.38;;;9.98;;
34236;SDS011;20501;45.956;13.632;2024-02-15T04:38:06;16.05;;;8.57;;
34236;SDS011;20501;45.956;13.632;2024-02-15T04:40:33;17.95;;;7.63;;
34236;SDS011;20501;45.956;13.632;2024-02-15T04:42:59;10.65;;;6.15;;
34236;SDS011;20501;45.956;13.632;2024-02-15T04:45:24;8.48;;;5.57;;
34236;SDS011;20501;45.956;13.632;2024-02-15T04:47:51;10.55;;;5.53;;
34236;SDS011;20501;45.956;13.632;2024-02-15T04:50:18;11.68;;;6.88;;
34236;SDS011;20501;45.956;13.632;2024-02-15T04:52:44;12.80;;;6.20;;
34236;SDS011;20501;45.956;13.632;2024-02-15T04:55:10;14.27;;;7.22;;
34236;SDS011;20501;45.956;13.632;2024-02-15T05:00:02;9.48;;;6.03;;
34236;SDS011;20501;45.956;13.632;2024-02-15T05:02:36;10.52;;;5.95;;
34236;SDS011;20501;45.956;13.632;2024-02-15T05:05:06;21.73;;;7.07;;
34236;SDS011;20501;45.956;13.632;2024-02-15T05:07:33;8.18;;;5.88;;
34236;SDS011;20501;45.956;13.632;2024-02-15T05:09:59;10.20;;;6.00;;
34236;SDS011;20501;45.956;13.632;2024-02-15T05:12:27;10.00;;;6.10;;
34236;SDS011;20501;45.956;13.632;2024-02-15T05:14:52;11.25;;;5.97;;
34236;SDS011;20501;45.956;13.632;2024-02-15T05:17:18;13.48;;;6.78;;
34236;SDS011;20501;45.956;13.632;2024-02-15T05:19:43;10.27;;;6.75;;
34236;SDS011;20501;45.956;13.632;2024-02-15T05:22:10;9.97;;;6.20;;
34236;SDS011;20501;45.956;13.632;2024-02-15T05:24:36;12.57;;;6.67;;
34236;SDS011;20501;45.956;13.632;2024-02-15T05:27:03;14.38;;;6.40;;
34236;SDS011;20501;45.956;13.632;2024-02-15T05:29:29;10.52;;;6.00;;
34236;SDS011;20501;45.956;13.632;2024-02-15T05:31:59;10.25;;;6.40;;
34236;SDS011;20501;45.956;13.632;2024-02-15T05:34:24;9.45;;;5.97;;
34236;SDS011;20501;45.956;13.632;2024-02-15T05:36:50;10.20;;;5.82;;
34236;SDS011;20501;45.956;13.632;2024-02-15T05:39:16;10.90;;;5.97;;
34236;SDS011;20501;45.956;13.632;2024-02-15T05:41:45;10.15;;;6.03;;
34236;SDS011;20501;45.956;13.632;2024-02-15T05:44:11;11.02;;;6.32;;
34236;SDS011;20501;45.956;13.632;2024-02-15T05:46:36;10.32;;;5.75;;
34236;SDS011;20501;45.956;13.632;2024-02-15T05:49:05;10.15;;;6.07;;
34236;SDS011;20501;45.956;13.632;2024-02-15T05:51:30;12.60;;;5.90;;
34236;SDS011;20501;45.956;13.632;2024-02-15T05:53:57;9.32;;;5.88;;
34236;SDS011;20501;45.956;13.632;2024-02-15T05:56:25;7.85;;;5.05;;
34236;SDS011;20501;45.956;13.632;2024-02-15T05:58:51;10.98;;;5.75;;
34236;SDS011;20501;45.956;13.632;2024-02-15T06:01:17;12.38;;;6.22;;
34236;SDS011;20501;45.956;13.632;2024-02-15T06:03:42;15.05;;;6.40;;
34236;SDS011;20501;45.956;13.632;2024-02-15T06:06:09;8.60;;;5.95;;
34236;SDS011;20501;45.956;13.632;2024-02-15T06:08:36;13.05;;;8.25;;
34236;SDS011;20501;45.956;13.632;2024-02-15T06:11:03;12.32;;;5.95;;
34236;SDS011;20501;45.956;13.632;2024-02-15T06:13:30;11.18;;;6.68;;
34236;SDS011;20501;45.956;13.632;2024-02-15T06:15:56;15.57;;;7.15;;
34236;SDS011;20501;45.956;13.632;2024-02-15T06:18:26;16.57;;;6.50;;
34236;SDS011;20501;45.956;13.632;2024-02-15T06:20:54;13.35;;;7.00;;
34236;SDS011;20501;45.956;13.632;2024-02-15T06:23:22;17.90;;;8.52;;
34236;SDS011;20501;45.956;13.632;2024-02-15T06:25:50;16.65;;;10.32;;
34236;SDS011;20501;45.956;13.632;2024-02-15T06:28:16;23.85;;;11.10;;
34236;SDS011;20501;45.956;13.632;2024-02-15T06:31:04;18.02;;;10.80;;
34236;SDS011;20501;45.956;13.632;2024-02-15T06:33:49;20.50;;;10.00;;
34236;SDS011;20501;45.956;13.632;2024-02-15T06:36:33;20.23;;;10.55;;
34236;SDS011;20501;45.956;13.632;2024-02-15T06:39:17;29.05;;;14.35;;
34236;SDS011;20501;45.956;13.632;2024-02-15T06:42:01;26.50;;;14.65;;
34236;SDS011;20501;45.956;13.632;2024-02-15T06:44:27;30.75;;;17.20;;
34236;SDS011;20501;45.956;13.632;2024-02-15T06:46:53;23.98;;;14.40;;
34236;SDS011;20501;45.956;13.632;2024-02-15T06:49:18;27.50;;;14.45;;
34236;SDS011;20501;45.956;13.632;2024-02-15T06:51:47;23.52;;;14.18;;
34236;SDS011;20501;45.956;13.632;2024-02-15T06:54:13;24.27;;;13.63;;
34236;SDS011;20501;45.956;13.632;2024-02-15T06:56:38;26.90;;;13.60;;
34236;SDS011;20501;45.956;13.632;2024-02-15T06:59:04;22.70;;;11.35;;
34236;SDS011;20501;45.956;13.632;2024-02-15T07:01:30;18.20;;;7.90;;
34236;SDS011;20501;45.956;13.632;2024-02-15T07:03:57;11.98;;;6.10;;
34236;SDS011;20501;45.956;13.632;2024-02-15T07:06:23;10.02;;;5.03;;
34236;SDS011;20501;45.956;13.632;2024-02-15T07:08:48;13.88;;;5.90;;
34236;SDS011;20501;45.956;13.632;2024-02-15T07:11:15;9.32;;;5.43;;
34236;SDS011;20501;45.956;13.632;2024-02-15T07:13:41;29.70;;;7.40;;
34236;SDS011;20501;45.956;13.632;2024-02-15T07:16:09;11.32;;;5.75;;
34236;SDS011;20501;45.956;13.632;2024-02-15T07:18:36;10.38;;;5.35;;
34236;SDS011;20501;45.956;13.632;2024-02-15T07:21:02;11.43;;;5.45;;
34236;SDS011;20501;45.956;13.632;2024-02-15T07:23:33;8.93;;;5.70;;
34236;SDS011;20501;45.956;13.632;2024-02-15T07:25:59;15.55;;;5.85;;
34236;SDS011;20501;45.956;13.632;2024-02-15T07:28:24;9.63;;;5.80;;
34236;SDS011;20501;45.956;13.632;2024-02-15T07:30:54;15.60;;;6.30;;
34236;SDS011;20501;45.956;13.632;2024-02-15T07:33:20;17.13;;;6.68;;
34236;SDS011;20501;45.956;13.632;2024-02-15T07:35:47;20.00;;;6.88;;
34236;SDS011;20501;45.956;13.632;2024-02-15T07:38:16;16.75;;;6.05;;
34236;SDS011;20501;45.956;13.632;2024-02-15T07:40:42;23.05;;;6.57;;
34236;SDS011;20501;45.956;13.632;2024-02-15T07:43:07;11.32;;;5.90;;
34236;SDS011;20501;45.956;13.632;2024-02-15T07:45:32;13.65;;;5.43;;
34236;SDS011;20501;45.956;13.632;2024-02-15T07:48:01;12.55;;;5.50;;
34236;SDS011;20501;45.956;13.632;2024-02-15T07:50:29;8.27;;;5.00;;
34236;SDS011;20501;45.956;13.632;2024-02-15T07:52:55;10.13;;;5.10;;
34236;SDS011;20501;45.956;13.632;2024-02-15T07:55:21;8.88;;;5.10;;
34236;SDS011;20501;45.956;13.632;2024-02-15T07:57:47;7.70;;;4.72;;
34236;SDS011;20501;45.956;13.632;2024-02-15T08:00:13;16.08;;;5.55;;
34236;SDS011;20501;45.956;13.632;2024-02-15T08:02:41;6.68;;;4.65;;
34236;SDS011;20501;45.956;13.632;2024-02-15T08:05:08;10.30;;;5.20;;
34236;SDS011;20501;45.956;13.632;2024-02-15T08:07:41;14.90;;;5.40;;
34236;SDS011;20501;45.956;13.632;2024-02-15T08:10:09;16.92;;;5.72;;
34236;SDS011;20501;45.956;13.632;2024-02-15T08:12:41;11.90;;;5.57;;
34236;SDS011;20501;45.956;13.632;2024-02-15T08:15:08;12.98;;;5.50;;
34236;SDS011;20501;45.956;13.632;2024-02-15T08:17:43;12.70;;;5.63;;
34236;SDS011;20501;45.956;13.632;2024-02-15T08:20:12;8.95;;;4.30;;
34236;SDS011;20501;45.956;13.632;2024-02-15T08:22:38;10.00;;;4.80;;
34236;SDS011;20501;45.956;13.632;2024-02-15T08:25:08;9.63;;;4.75;;
34236;SDS011;20501;45.956;13.632;2024-02-15T08:30:11;10.32;;;5.72;;
34236;SDS011;20501;45.956;13.632;2024-02-15T08:32:40;16.73;;;7.22;;
34236;SDS011;20501;45.956;13.632;2024-02-15T08:35:13;13.00;;;6.30;;
34236;SDS011;20501;45.956;13.632;2024-02-15T08:37:39;11.10;;;5.85;;
34236;SDS011;20501;45.956;13.632;2024-02-15T08:40:07;9.05;;;5.40;;
34236;SDS011;20501;45.956;13.632;2024-02-15T08:42:40;14.63;;;5.88;;
34236;SDS011;20501;45.956;13.632;2024-02-15T08:45:06;13.65;;;5.22;;
34236;SDS011;20501;45.956;13.632;2024-02-15T08:47:38;7.90;;;4.57;;
34236;SDS011;20501;45.956;13.632;2024-02-15T08:50:05;6.57;;;4.65;;
34236;SDS011;20501;45.956;13.632;2024-02-15T08:52:31;6.90;;;4.93;;
34236;SDS011;20501;45.956;13.632;2024-02-15T08:54:57;8.20;;;4.22;;
34236;SDS011;20501;45.956;13.632;2024-02-15T08:59:49;170.98;;;16.33;;
34236;SDS011;20501;45.956;13.632;2024-02-15T09:02:16;9.35;;;4.35;;
34236;SDS011;20501;45.956;13.632;2024-02-15T09:04:42;10.90;;;4.40;;
34236;SDS011;20501;45.956;13.632;2024-02-15T09:07:08;8.30;;;4.78;;
34236;SDS011;20501;45.956;13.632;2024-02-15T09:09:34;15.68;;;5.28;;
34236;SDS011;20501;45.956;13.632;2024-02-15T09:12:02;7.40;;;4.20;;
34236;SDS011;20501;45.956;13.632;2024-02-15T09:14:33;12.52;;;4.88;;
34236;SDS011;20501;45.956;13.632;2024-02-15T09:16:59;8.10;;;4.63;;
34236;SDS011;20501;45.956;13.632;2024-02-15T09:19:35;7.47;;;3.95;;
34236;SDS011;20501;45.956;13.632;2024-02-15T09:22:01;5.45;;;4.03;;
34236;SDS011;20501;45.956;13.632;2024-02-15T09:24:29;7.53;;;4.30;;
34236;SDS011;20501;45.956;13.632;2024-02-15T09:26:55;14.70;;;4.67;;
34236;SDS011;20501;45.956;13.632;2024-02-15T09:29:21;11.90;;;5.00;;
34236;SDS011;20501;45.956;13.632;2024-02-15T09:31:49;13.73;;;4.93;;
34236;SDS011;20501;45.956;13.632;2024-02-15T09:34:15;6.80;;;4.65;;
34236;SDS011;20501;45.956;13.632;2024-02-15T09:36:40;5.55;;;3.90;;
34236;SDS011;20501;45.956;13.632;2024-02-15T09:39:06;10.93;;;4.57;;
34236;SDS011;20501;45.956;13.632;2024-02-15T09:41:31;10.35;;;5.45;;
34236;SDS011;20501;45.956;13.632;2024-02-15T09:43:59;4.88;;;3.50;;
34236;SDS011;20501;45.956;13.632;2024-02-15T09:46:26;6.28;;;4.13;;
34236;SDS011;20501;45.956;13.632;2024-02-15T09:48:52;7.45;;;4.70;;
34236;SDS011;20501;45.956;13.632;2024-02-15T09:51:24;11.38;;;4.40;;
34236;SDS011;20501;45.956;13.632;2024-02-15T09:53:50;8.60;;;4.20;;
34236;SDS011;20501;45.956;13.632;2024-02-15T09:56:16;6.80;;;4.23;;
34236;SDS011;20501;45.956;13.632;2024-02-15T09:58:43;7.13;;;3.95;;
34236;SDS011;20501;45.956;13.632;2024-02-15T10:01:09;8.25;;;4.20;;
34236;SDS011;20501;45.956;13.632;2024-02-15T10:03:37;8.40;;;4.25;;
34236;SDS011;20501;45.956;13.632;2024-02-15T10:06:05;5.47;;;3.65;;
34236;SDS011;20501;45.956;13.632;2024-02-15T10:08:31;5.93;;;3.77;;
34236;SDS011;20501;45.956;13.632;2024-02-15T10:11:06;22.00;;;5.10;;
34236;SDS011;20501;45.956;13.632;2024-02-15T10:13:33;6.55;;;3.83;;
34236;SDS011;20501;45.956;13.632;2024-02-15T10:15:59;6.70;;;4.50;;
34236;SDS011;20501;45.956;13.632;2024-02-15T10:18:24;7.43;;;4.30;;
34236;SDS011;20501;45.956;13.632;2024-02-15T10:20:59;9.83;;;4.83;;
34236;SDS011;20501;45.956;13.632;2024-02-15T10:23:24;10.40;;;4.97;;
34236;SDS011;20501;45.956;13.632;2024-02-15T10:25:50;8.43;;;4.47;;
34236;SDS011;20501;45.956;13.632;2024-02-15T10:28:24;12.50;;;4.83;;
34236;SDS011;20501;45.956;13.632;2024-02-15T10:30:52;8.27;;;5.00;;
34236;SDS011;20501;45.956;13.632;2024-02-15T10:33:28;17.70;;;4.10;;
34236;SDS011;20501;45.956;13.632;2024-02-15T10:36:06;5.70;;;4.30;;
34236;SDS011;20501;45.956;13.632;2024-02-15T10:38:36;10.18;;;4.80;;
34236;SDS011;20501;45.956;13.632;2024-02-15T10:41:07;5.70;;;3.90;;
34236;SDS011;20501;45.956;13.632;2024-02-15T10:43:33;24.88;;;6.32;;
34236;SDS011;20501;45.956;13.632;2024-02-15T10:46:03;6.68;;;4.32;;
34236;SDS011;20501;45.956;13.632;2024-02-15T10:48:28;8.85;;;4.78;;
34236;SDS011;20501;45.956;13.632;2024-02-15T10:50:55;8.87;;;4.37;;
34236;SDS011;20501;45.956;13.632;2024-02-15T10:53:26;13.40;;;5.20;;
34236;SDS011;20501;45.956;13.632;2024-02-15T10:55:53;7.60;;;5.00;;
34236;SDS011;20501;45.956;13.632;2024-02-15T10:58:34;7.43;;;4.93;;
34236;SDS011;20501;45.956;13.632;2024-02-15T11:01:12;6.93;;;5.15;;
34236;SDS011;20501;45.956;13.632;2024-02-15T11:03:56;8.73;;;5.57;;
34236;SDS011;20501;45.956;13.632;2024-02-15T11:06:26;7.28;;;5.70;;
34236;SDS011;20501;45.956;13.632;2024-02-15T11:08:55;9.02;;;5.97;;
34236;SDS011;20501;45.956;13.632;2024-02-15T11:11:21;10.65;;;6.80;;
34236;SDS011;20501;45.956;13.632;2024-02-15T11:13:47;13.75;;;7.35;;
34236;SDS011;20501;45.956;13.632;2024-02-15T11:19:04;11.80;;;7.75;;
34236;SDS011;20501;45.956;13.632;2024-02-15T11:24:27;8.05;;;5.88;;
34236;SDS011;20501;45.956;13.632;2024-02-15T11:27:00;11.48;;;6.50;;
34236;SDS011;20501;45.956;13.632;2024-02-15T11:32:44;9.40;;;6.65;;
34236;SDS011;20501;45.956;13.632;2024-02-15T11:35:18;8.73;;;5.80;;
34236;SDS011;20501;45.956;13.632;2024-02-15T11:40:16;8.45;;;5.82;;
34236;SDS011;20501;45.956;13.632;2024-02-15T11:42:44;12.57;;;6.22;;
34236;SDS011;20501;45.956;13.632;2024-02-15T11:45:11;8.23;;;5.60;;
34236;SDS011;20501;45.956;13.632;2024-02-15T11:47:38;8.02;;;6.03;;
34236;SDS011;20501;45.956;13.632;2024-02-15T11:50:07;9.43;;;6.30;;
34236;SDS011;20501;45.956;13.632;2024-02-15T11:52:37;11.52;;;7.40;;
34236;SDS011;20501;45.956;13.632;2024-02-15T11:55:07;12.13;;;6.05;;
34236;SDS011;20501;45.956;13.632;2024-02-15T11:57:38;8.90;;;6.07;;
34236;SDS011;20501;45.956;13.632;2024-02-15T12:03:05;11.20;;;7.78;;
34236;SDS011;20501;45.956;13.632;2024-02-15T12:05:50;11.05;;;7.78;;
34236;SDS011;20501;45.956;13.632;2024-02-15T12:08:34;12.73;;;9.32;;
34236;SDS011;20501;45.956;13.632;2024-02-15T12:11:19;12.70;;;9.30;;
34236;SDS011;20501;45.956;13.632;2024-02-15T12:14:02;12.48;;;9.02;;
34236;SDS011;20501;45.956;13.632;2024-02-15T12:16:46;15.05;;;9.38;;
34236;SDS011;20501;45.956;13.632;2024-02-15T12:19:30;14.15;;;10.10;;
34236;SDS011;20501;45.956;13.632;2024-02-15T12:21:56;14.73;;;10.43;;
34236;SDS011;20501;45.956;13.632;2024-02-15T12:24:23;17.23;;;10.45;;
34236;SDS011;20501;45.956;13.632;2024-02-15T12:26:52;15.73;;;9.95;;
34236;SDS011;20501;45.956;13.632;2024-02-15T12:29:26;14.57;;;10.13;;
34236;SDS011;20501;45.956;13.632;2024-02-15T12:31:51;16.57;;;9.80;;
34236;SDS011;20501;45.956;13.632;2024-02-15T12:34:16;23.88;;;11.38;;
34236;SDS011;20501;45.956;13.632;2024-02-15T12:36:45;15.82;;;10.25;;
34236;SDS011;20501;45.956;13.632;2024-02-15T12:39:12;18.10;;;10.73;;
34236;SDS011;20501;45.956;13.632;2024-02-15T12:41:47;14.43;;;10.05;;
34236;SDS011;20501;45.956;13.632;2024-02-15T12:44:18;16.88;;;10.32;;
34236;SDS011;20501;45.956;13.632;2024-02-15T12:46:47;18.02;;;10.75;;
34236;SDS011;20501;45.956;13.632;2024-02-15T12:51:50;17.07;;;11.13;;
34236;SDS011;20501;45.956;13.632;2024-02-15T12:54:22;15.50;;;10.43;;
34236;SDS011;20501;45.956;13.632;2024-02-15T12:56:49;14.18;;;9.85;;
34236;SDS011;20501;45.956;13.632;2024-02-15T12:59:17;16.10;;;9.88;;
34236;SDS011;20501;45.956;13.632;2024-02-15T13:01:44;15.90;;;9.35;;
34236;SDS011;20501;45.956;13.632;2024-02-15T13:04:21;13.98;;;9.90;;
34236;SDS011;20501;45.956;13.632;2024-02-15T13:06:50;16.83;;;9.88;;
34236;SDS011;20501;45.956;13.632;2024-02-15T13:09:15;14.73;;;10.18;;
34236;SDS011;20501;45.956;13.632;2024-02-15T13:11:41;21.27;;;10.88;;
34236;SDS011;20501;45.956;13.632;2024-02-15T13:14:10;19.20;;;10.77;;
34236;SDS011;20501;45.956;13.632;2024-02-15T13:16:36;15.55;;;10.07;;
34236;SDS011;20501;45.956;13.632;2024-02-15T13:19:02;20.73;;;10.55;;
34236;SDS011;20501;45.956;13.632;2024-02-15T13:21:28;15.73;;;9.85;;
34236;SDS011;20501;45.956;13.632;2024-02-15T13:26:21;17.40;;;9.15;;
34236;SDS011;20501;45.956;13.632;2024-02-15T13:28:48;21.42;;;12.88;;
34236;SDS011;20501;45.956;13.632;2024-02-15T13:31:14;15.48;;;9.60;;
34236;SDS011;20501;45.956;13.632;2024-02-15T13:33:40;16.00;;;9.20;;
34236;SDS011;20501;45.956;13.632;2024-02-15T13:36:06;18.42;;;9.75;;
34236;SDS011;20501;45.956;13.632;2024-02-15T13:38:36;15.82;;;8.60;;
34236;SDS011;20501;45.956;13.632;2024-02-15T13:41:02;19.00;;;9.80;;
34236;SDS011;20501;45.956;13.632;2024-02-15T13:43:28;16.35;;;8.60;;
34236;SDS011;20501;45.956;13.632;2024-02-15T13:45:55;18.42;;;9.27;;
34236;SDS011;20501;45.956;13.632;2024-02-15T13:48:21;15.43;;;9.40;;
34236;SDS011;20501;45.956;13.632;2024-02-15T13:50:50;20.60;;;10.07;;
34236;SDS011;20501;45.956;13.632;2024-02-15T13:53:17;19.35;;;10.90;;
34236;SDS011;20501;45.956;13.632;2024-02-15T13:55:43;17.50;;;10.85;;
34236;SDS011;20501;45.956;13.632;2024-02-15T13:58:09;19.77;;;11.55;;
34236;SDS011;20501;45.956;13.632;2024-02-15T14:00:38;22.90;;;12.80;;
34236;SDS011;20501;45.956;13.632;2024-02-15T14:03:07;26.40;;;11.88;;
34236;SDS011;20501;45.956;13.632;2024-02-15T14:05:35;22.60;;;11.90;;
34236;SDS011;20501;45.956;13.632;2024-02-15T14:08:01;21.52;;;12.73;;
34236;SDS011;20501;45.956;13.632;2024-02-15T14:10:28;20.23;;;11.18;;
34236;SDS011;20501;45.956;13.632;2024-02-15T14:12:55;18.98;;;11.50;;
34236;SDS011;20501;45.956;13.632;2024-02-15T14:15:23;22.58;;;12.80;;
34236;SDS011;20501;45.956;13.632;2024-02-15T14:17:51;21.90;;;11.70;;
34236;SDS011;20501;45.956;13.632;2024-02-15T14:20:17;21.95;;;11.10;;
34236;SDS011;20501;45.956;13.632;2024-02-15T14:22:47;21.80;;;11.40;;
34236;SDS011;20501;45.956;13.632;2024-02-15T14:25:32;22.55;;;10.77;;
34236;SDS011;20501;45.956;13.632;2024-02-15T14:27:57;22.55;;;11.60;;
34236;SDS011;20501;45.956;13.632;2024-02-15T14:30:23;21.25;;;11.90;;
34236;SDS011;20501;45.956;13.632;2024-02-15T14:33:09;18.52;;;11.23;;
34236;SDS011;20501;45.956;13.632;2024-02-15T14:35:39;20.50;;;10.68;;
34236;SDS011;20501;45.956;13.632;2024-02-15T14:38:08;20.73;;;11.20;;
34236;SDS011;20501;45.956;13.632;2024-02-15T14:40:37;19.20;;;11.80;;
34236;SDS011;20501;45.956;13.632;2024-02-15T14:43:04;22.85;;;10.88;;
34236;SDS011;20501;45.956;13.632;2024-02-15T14:45:33;23.43;;;11.63;;
34236;SDS011;20501;45.956;13.632;2024-02-15T14:47:59;21.45;;;11.70;;
34236;SDS011;20501;45.956;13.632;2024-02-15T14:50:25;19.70;;;11.23;;
34236;SDS011;20501;45.956;13.632;2024-02-15T14:52:51;19.48;;;11.27;;
34236;SDS011;20501;45.956;13.632;2024-02-15T14:55:18;18.20;;;10.43;;
34236;SDS011;20501;45.956;13.632;2024-02-15T14:57:44;23.23;;;10.73;;
34236;SDS011;20501;45.956;13.632;2024-02-15T15:00:11;21.80;;;10.90;;